DLH8Q EDDF-LIRN
Flight info
| Callsign | DLH8Q |
|---|---|
| Flight time | 1h 31m |
| Altitude | 39000 |
| Route | CINDY2D CINDY Z74 LAMPU DCT NOMBO Y161 RIDAR DCT KONIN DCT BERAS DCT LIKDA DCT BAKOR DCT BELOV DCT SUXUB DCT ERIKA |
| Aircraft | A20N/M-SDE2E3FGHIRWXY/LB1 |
Departure
| Time | 2026-04-14 11:39 |
|---|---|
| Airport | Frankfurt Main Airport (EDDF) |
Arrival
| Time | 2026-04-14 13:10 |
|---|---|
| Airport | Naples International Airport (LIRN) |
| Time | Latitude | Longitude | Altitude | Speed | Heading |
|---|---|---|---|---|---|
| 2026-04-14 11:08 | 50.04657 | 8.55937 | 363 ft | 0 kts | 339° |
| 2026-04-14 11:27 | 50.04644 | 8.55944 | 363 ft | 2 kts | 339° |
| 2026-04-14 11:27 | 50.04630 | 8.55953 | 363 ft | 2 kts | 339° |
| 2026-04-14 11:27 | 50.04616 | 8.55961 | 363 ft | 1 kts | 339° |
| 2026-04-14 11:28 | 50.04607 | 8.55966 | 363 ft | 2 kts | 334° |
| 2026-04-14 11:28 | 50.04595 | 8.55979 | 363 ft | 2 kts | 316° |
| 2026-04-14 11:28 | 50.04585 | 8.55996 | 363 ft | 2 kts | 301° |
| 2026-04-14 11:28 | 50.04579 | 8.56017 | 363 ft | 2 kts | 286° |
| 2026-04-14 11:29 | 50.04576 | 8.56039 | 363 ft | 2 kts | 271° |
| 2026-04-14 11:29 | 50.04577 | 8.56063 | 363 ft | 2 kts | 256° |
| 2026-04-14 11:29 | 50.04579 | 8.56075 | 363 ft | 1 kts | 247° |
| 2026-04-14 11:29 | 50.04581 | 8.56080 | 363 ft | 0 kts | 248° |
| 2026-04-14 11:32 | 50.04579 | 8.56072 | 363 ft | 1 kts | 248° |
| 2026-04-14 11:32 | 50.04571 | 8.56042 | 363 ft | 4 kts | 248° |
| 2026-04-14 11:32 | 50.04538 | 8.55968 | 363 ft | 12 kts | 207° |
| 2026-04-14 11:33 | 50.04435 | 8.55916 | 362 ft | 17 kts | 192° |
| 2026-04-14 11:33 | 50.04320 | 8.55945 | 359 ft | 17 kts | 159° |
| 2026-04-14 11:33 | 50.04221 | 8.55884 | 355 ft | 18 kts | 251° |
| 2026-04-14 11:34 | 50.04136 | 8.55513 | 355 ft | 17 kts | 248° |
| 2026-04-14 11:34 | 50.04094 | 8.55334 | 353 ft | 19 kts | 250° |
| 2026-04-14 11:34 | 50.04041 | 8.55116 | 350 ft | 23 kts | 249° |
| 2026-04-14 11:34 | 50.03983 | 8.54872 | 346 ft | 24 kts | 249° |
| 2026-04-14 11:35 | 50.03922 | 8.54614 | 342 ft | 25 kts | 249° |
| 2026-04-14 11:35 | 50.03857 | 8.54367 | 341 ft | 24 kts | 232° |
| 2026-04-14 11:35 | 50.03775 | 8.54141 | 342 ft | 22 kts | 248° |
| 2026-04-14 11:35 | 50.03727 | 8.53926 | 346 ft | 19 kts | 250° |
| 2026-04-14 11:36 | 50.03682 | 8.53734 | 347 ft | 19 kts | 249° |
| 2026-04-14 11:36 | 50.03630 | 8.53525 | 346 ft | 21 kts | 248° |
| 2026-04-14 11:36 | 50.03574 | 8.53299 | 342 ft | 23 kts | 249° |
| 2026-04-14 11:36 | 50.03479 | 8.53112 | 339 ft | 23 kts | 211° |
| 2026-04-14 11:37 | 50.03370 | 8.53025 | 337 ft | 14 kts | 120° |
| 2026-04-14 11:37 | 50.03383 | 8.53202 | 336 ft | 17 kts | 76° |
| 2026-04-14 11:37 | 50.03352 | 8.53366 | 337 ft | 16 kts | 131° |
| 2026-04-14 11:37 | 50.03287 | 8.53514 | 335 ft | 13 kts | 86° |
| 2026-04-14 11:38 | 50.03307 | 8.53660 | 336 ft | 16 kts | 70° |
| 2026-04-14 11:38 | 50.03440 | 8.54228 | 334 ft | 95 kts | 68° |
| 2026-04-14 11:38 | 50.03756 | 8.55531 | 345 ft | 158 kts | 69° |
| 2026-04-14 11:38 | 50.04154 | 8.57234 | 838 ft | 171 kts | 70° |
| 2026-04-14 11:39 | 50.04543 | 8.58902 | 1650 ft | 166 kts | 70° |
| 2026-04-14 11:39 | 50.04927 | 8.60564 | 2389 ft | 166 kts | 70° |
| 2026-04-14 11:39 | 50.05301 | 8.62264 | 3003 ft | 172 kts | 72° |
| 2026-04-14 11:39 | 50.05638 | 8.64061 | 3606 ft | 176 kts | 73° |
| 2026-04-14 11:40 | 50.05999 | 8.65927 | 4099 ft | 188 kts | 72° |
| 2026-04-14 11:40 | 50.06404 | 8.67957 | 4607 ft | 202 kts | 82° |
| 2026-04-14 11:40 | 50.06291 | 8.70182 | 5079 ft | 219 kts | 114° |
| 2026-04-14 11:40 | 50.05353 | 8.72102 | 5556 ft | 236 kts | 146° |
| 2026-04-14 11:41 | 50.03853 | 8.73312 | 6079 ft | 253 kts | 156° |
| 2026-04-14 11:41 | 50.02182 | 8.74396 | 6600 ft | 271 kts | 163° |
| 2026-04-14 11:41 | 50.00313 | 8.74878 | 7341 ft | 278 kts | 175° |
| 2026-04-14 11:41 | 49.98431 | 8.75575 | 8190 ft | 281 kts | 151° |
| 2026-04-14 11:42 | 49.97020 | 8.77617 | 9016 ft | 284 kts | 124° |
| 2026-04-14 11:42 | 49.95980 | 8.80206 | 9850 ft | 286 kts | 122° |
| 2026-04-14 11:42 | 49.94913 | 8.82791 | 10544 ft | 294 kts | 124° |
| 2026-04-14 11:42 | 49.93681 | 8.85433 | 10956 ft | 311 kts | 128° |
| 2026-04-14 11:43 | 49.92301 | 8.88115 | 11308 ft | 329 kts | 130° |
| 2026-04-14 11:43 | 49.90778 | 8.90906 | 11664 ft | 346 kts | 131° |
| 2026-04-14 11:43 | 49.89174 | 8.93751 | 12291 ft | 353 kts | 131° |
| 2026-04-14 11:43 | 49.87561 | 8.96570 | 13045 ft | 356 kts | 131° |
| 2026-04-14 11:44 | 49.85903 | 8.99443 | 13767 ft | 359 kts | 131° |
| 2026-04-14 11:44 | 49.84219 | 9.02352 | 14462 ft | 363 kts | 132° |
| 2026-04-14 11:44 | 49.82534 | 9.05252 | 15137 ft | 367 kts | 132° |
| 2026-04-14 11:44 | 49.80840 | 9.08164 | 15795 ft | 370 kts | 132° |
| 2026-04-14 11:45 | 49.79100 | 9.11153 | 16446 ft | 374 kts | 132° |
| 2026-04-14 11:45 | 49.77361 | 9.14133 | 17073 ft | 377 kts | 132° |
| 2026-04-14 11:45 | 49.75594 | 9.17158 | 17688 ft | 381 kts | 132° |
| 2026-04-14 11:45 | 49.73819 | 9.20221 | 18286 ft | 384 kts | 131° |
| 2026-04-14 11:46 | 49.72069 | 9.23320 | 18865 ft | 388 kts | 130° |
| 2026-04-14 11:46 | 49.70297 | 9.26478 | 19432 ft | 391 kts | 130° |
| 2026-04-14 11:46 | 49.68525 | 9.29632 | 19984 ft | 394 kts | 130° |
| 2026-04-14 11:46 | 49.66713 | 9.32846 | 20538 ft | 398 kts | 131° |
| 2026-04-14 11:47 | 49.64878 | 9.36093 | 21085 ft | 401 kts | 131° |
| 2026-04-14 11:47 | 49.62986 | 9.39228 | 21611 ft | 404 kts | 136° |
| 2026-04-14 11:47 | 49.60869 | 9.42059 | 22133 ft | 407 kts | 142° |
| 2026-04-14 11:47 | 49.58540 | 9.44519 | 22646 ft | 410 kts | 148° |
| 2026-04-14 11:48 | 49.56064 | 9.46811 | 23164 ft | 413 kts | 149° |
| 2026-04-14 11:48 | 49.53595 | 9.49043 | 23654 ft | 417 kts | 149° |
| 2026-04-14 11:48 | 49.51103 | 9.51292 | 24129 ft | 420 kts | 149° |
| 2026-04-14 11:48 | 49.48588 | 9.53570 | 24596 ft | 423 kts | 149° |
| 2026-04-14 11:49 | 49.46062 | 9.55863 | 25049 ft | 426 kts | 149° |
| 2026-04-14 11:49 | 49.43499 | 9.58192 | 25493 ft | 429 kts | 149° |
| 2026-04-14 11:49 | 49.40931 | 9.60525 | 25923 ft | 431 kts | 149° |
| 2026-04-14 11:49 | 49.38371 | 9.62848 | 26336 ft | 434 kts | 149° |
| 2026-04-14 11:50 | 49.35818 | 9.65320 | 26738 ft | 437 kts | 146° |
| 2026-04-14 11:50 | 49.33362 | 9.68135 | 27135 ft | 440 kts | 141° |
| 2026-04-14 11:50 | 49.31095 | 9.71217 | 27511 ft | 442 kts | 136° |
| 2026-04-14 11:51 | 49.26696 | 9.77904 | 28229 ft | 447 kts | 135° |
| 2026-04-14 11:51 | 49.24531 | 9.81221 | 28551 ft | 449 kts | 135° |
| 2026-04-14 11:51 | 49.22304 | 9.84625 | 28868 ft | 451 kts | 135° |
| 2026-04-14 11:51 | 49.20090 | 9.87997 | 29165 ft | 453 kts | 135° |
| 2026-04-14 11:52 | 49.17854 | 9.91394 | 29446 ft | 455 kts | 135° |
| 2026-04-14 11:52 | 49.15596 | 9.94818 | 29713 ft | 457 kts | 135° |
| 2026-04-14 11:52 | 49.13342 | 9.98230 | 29964 ft | 459 kts | 135° |
| 2026-04-14 11:52 | 49.11079 | 10.01651 | 30239 ft | 460 kts | 135° |
| 2026-04-14 11:53 | 49.08830 | 10.05045 | 30575 ft | 459 kts | 135° |
| 2026-04-14 11:53 | 49.06562 | 10.08462 | 30914 ft | 458 kts | 135° |
| 2026-04-14 11:53 | 49.04277 | 10.11800 | 31226 ft | 457 kts | 137° |
| 2026-04-14 11:53 | 49.01969 | 10.15063 | 31521 ft | 456 kts | 137° |
| 2026-04-14 11:54 | 48.99615 | 10.18365 | 31814 ft | 456 kts | 137° |
| 2026-04-14 11:54 | 48.97319 | 10.21592 | 32098 ft | 455 kts | 137° |
| 2026-04-14 11:54 | 48.95001 | 10.24860 | 32381 ft | 455 kts | 137° |
| 2026-04-14 11:54 | 48.92680 | 10.28138 | 32659 ft | 454 kts | 137° |
| 2026-04-14 11:55 | 48.90384 | 10.31379 | 32928 ft | 454 kts | 137° |
| 2026-04-14 11:55 | 48.88084 | 10.34621 | 33193 ft | 453 kts | 137° |
| 2026-04-14 11:55 | 48.85775 | 10.37871 | 33454 ft | 452 kts | 137° |
| 2026-04-14 11:55 | 48.83476 | 10.41132 | 33707 ft | 452 kts | 135° |
| 2026-04-14 11:56 | 48.81273 | 10.44525 | 33955 ft | 451 kts | 133° |
| 2026-04-14 11:56 | 48.79116 | 10.47985 | 34199 ft | 451 kts | 133° |
| 2026-04-14 11:56 | 48.76984 | 10.51402 | 34435 ft | 450 kts | 133° |
| 2026-04-14 11:56 | 48.74842 | 10.54830 | 34665 ft | 450 kts | 133° |
| 2026-04-14 11:57 | 48.72666 | 10.58305 | 34893 ft | 450 kts | 133° |
| 2026-04-14 11:57 | 48.70533 | 10.61708 | 35111 ft | 449 kts | 133° |
| 2026-04-14 11:57 | 48.68420 | 10.65072 | 35304 ft | 449 kts | 134° |
| 2026-04-14 11:57 | 48.66228 | 10.68559 | 35472 ft | 450 kts | 134° |
| 2026-04-14 11:58 | 48.64066 | 10.71940 | 35620 ft | 451 kts | 135° |
| 2026-04-14 11:58 | 48.61789 | 10.75170 | 35766 ft | 451 kts | 139° |
| 2026-04-14 11:58 | 48.59374 | 10.78218 | 35910 ft | 452 kts | 142° |
| 2026-04-14 11:58 | 48.56876 | 10.81015 | 36047 ft | 452 kts | 145° |
| 2026-04-14 11:59 | 48.54262 | 10.83602 | 36178 ft | 453 kts | 149° |
| 2026-04-14 11:59 | 48.51526 | 10.85978 | 36300 ft | 453 kts | 152° |
| 2026-04-14 11:59 | 48.48730 | 10.88165 | 36417 ft | 454 kts | 153° |
| 2026-04-14 11:59 | 48.45943 | 10.90330 | 36528 ft | 455 kts | 153° |
| 2026-04-14 12:00 | 48.43126 | 10.92522 | 36635 ft | 455 kts | 153° |
| 2026-04-14 12:00 | 48.40328 | 10.94698 | 36738 ft | 456 kts | 153° |
| 2026-04-14 12:00 | 48.34682 | 10.99085 | 36934 ft | 457 kts | 153° |
| 2026-04-14 12:01 | 48.29070 | 11.03437 | 36988 ft | 459 kts | 153° |
| 2026-04-14 12:01 | 48.23391 | 11.07829 | 36990 ft | 459 kts | 153° |
| 2026-04-14 12:02 | 48.17748 | 11.12183 | 36991 ft | 459 kts | 153° |
| 2026-04-14 12:02 | 48.12108 | 11.16525 | 36991 ft | 459 kts | 153° |
| 2026-04-14 12:03 | 48.06437 | 11.20879 | 36991 ft | 459 kts | 153° |
| 2026-04-14 12:03 | 48.00761 | 11.25226 | 36991 ft | 459 kts | 153° |
| 2026-04-14 12:04 | 47.95128 | 11.29531 | 36991 ft | 459 kts | 153° |
| 2026-04-14 12:04 | 47.89441 | 11.33865 | 36991 ft | 459 kts | 153° |
| 2026-04-14 12:05 | 47.83792 | 11.38204 | 36991 ft | 459 kts | 151° |
| 2026-04-14 12:05 | 47.78217 | 11.42761 | 36991 ft | 459 kts | 150° |
| 2026-04-14 12:06 | 47.72636 | 11.47336 | 36991 ft | 459 kts | 151° |
| 2026-04-14 12:06 | 47.67099 | 11.51845 | 36991 ft | 459 kts | 151° |
| 2026-04-14 12:07 | 47.61496 | 11.56387 | 36991 ft | 459 kts | 151° |
| 2026-04-14 12:07 | 47.55927 | 11.60889 | 36991 ft | 459 kts | 151° |
| 2026-04-14 12:08 | 47.50357 | 11.65380 | 36991 ft | 459 kts | 152° |
| 2026-04-14 12:08 | 47.44750 | 11.69887 | 36991 ft | 459 kts | 152° |
| 2026-04-14 12:09 | 47.38929 | 11.73630 | 36990 ft | 459 kts | 162° |
| 2026-04-14 12:09 | 47.32778 | 11.75826 | 36991 ft | 459 kts | 172° |
| 2026-04-14 12:10 | 47.26439 | 11.76431 | 36991 ft | 459 kts | 181° |
| 2026-04-14 12:10 | 47.20096 | 11.76092 | 36991 ft | 459 kts | 182° |
| 2026-04-14 12:11 | 47.13721 | 11.75724 | 36991 ft | 459 kts | 182° |
| 2026-04-14 12:11 | 47.07365 | 11.75379 | 36991 ft | 459 kts | 182° |
| 2026-04-14 12:12 | 47.01010 | 11.75040 | 36991 ft | 459 kts | 182° |
| 2026-04-14 12:12 | 46.94664 | 11.74691 | 36991 ft | 459 kts | 182° |
| 2026-04-14 12:13 | 46.88345 | 11.74344 | 36991 ft | 459 kts | 182° |
| 2026-04-14 12:13 | 46.81970 | 11.73997 | 36991 ft | 459 kts | 182° |
| 2026-04-14 12:14 | 46.75627 | 11.73653 | 36991 ft | 459 kts | 182° |
| 2026-04-14 12:14 | 46.69249 | 11.73347 | 36990 ft | 459 kts | 180° |
| 2026-04-14 12:15 | 46.62910 | 11.73807 | 36991 ft | 459 kts | 174° |
| 2026-04-14 12:15 | 46.56639 | 11.75351 | 36991 ft | 459 kts | 167° |
| 2026-04-14 12:16 | 46.50548 | 11.77939 | 36991 ft | 459 kts | 161° |
| 2026-04-14 12:16 | 46.44552 | 11.80912 | 36991 ft | 459 kts | 161° |
| 2026-04-14 12:17 | 46.38522 | 11.83883 | 36991 ft | 459 kts | 161° |
| 2026-04-14 12:17 | 46.32510 | 11.86835 | 36991 ft | 459 kts | 161° |
| 2026-04-14 12:18 | 46.26469 | 11.89792 | 36991 ft | 459 kts | 161° |
| 2026-04-14 12:18 | 46.20467 | 11.92724 | 36991 ft | 459 kts | 161° |
| 2026-04-14 12:19 | 46.14447 | 11.95657 | 36991 ft | 459 kts | 161° |
| 2026-04-14 12:19 | 46.08433 | 11.98581 | 36991 ft | 459 kts | 161° |
| 2026-04-14 12:20 | 46.02390 | 12.01512 | 36991 ft | 459 kts | 161° |
| 2026-04-14 12:20 | 45.96368 | 12.04426 | 36991 ft | 459 kts | 161° |
| 2026-04-14 12:21 | 45.90356 | 12.07329 | 36991 ft | 459 kts | 161° |
| 2026-04-14 12:21 | 45.84325 | 12.10234 | 36991 ft | 459 kts | 161° |
| 2026-04-14 12:22 | 45.78314 | 12.13123 | 36991 ft | 459 kts | 161° |
| 2026-04-14 12:22 | 45.72281 | 12.16015 | 36991 ft | 459 kts | 161° |
| 2026-04-14 12:23 | 45.66262 | 12.18895 | 36991 ft | 459 kts | 161° |
| 2026-04-14 12:23 | 45.60200 | 12.21788 | 36991 ft | 459 kts | 161° |
| 2026-04-14 12:24 | 45.54172 | 12.24659 | 36991 ft | 459 kts | 161° |
| 2026-04-14 12:24 | 45.48145 | 12.27523 | 36991 ft | 459 kts | 161° |
| 2026-04-14 12:25 | 45.42139 | 12.30370 | 36991 ft | 459 kts | 161° |
| 2026-04-14 12:25 | 45.36085 | 12.33234 | 36991 ft | 459 kts | 161° |
| 2026-04-14 12:26 | 45.30064 | 12.36076 | 36991 ft | 459 kts | 161° |
| 2026-04-14 12:26 | 45.24012 | 12.38926 | 36991 ft | 459 kts | 161° |
| 2026-04-14 12:27 | 45.17998 | 12.41751 | 36991 ft | 459 kts | 161° |
| 2026-04-14 12:27 | 45.11949 | 12.44587 | 36991 ft | 459 kts | 161° |
| 2026-04-14 12:28 | 45.05937 | 12.47400 | 36991 ft | 459 kts | 161° |
| 2026-04-14 12:28 | 44.99912 | 12.50212 | 36991 ft | 459 kts | 161° |
| 2026-04-14 12:29 | 44.93846 | 12.53037 | 36991 ft | 459 kts | 161° |
| 2026-04-14 12:29 | 44.87835 | 12.55831 | 36991 ft | 459 kts | 161° |
| 2026-04-14 12:30 | 44.81796 | 12.58631 | 36991 ft | 459 kts | 161° |
| 2026-04-14 12:30 | 44.75735 | 12.61435 | 36991 ft | 459 kts | 161° |
| 2026-04-14 12:31 | 44.69713 | 12.64214 | 36991 ft | 459 kts | 161° |
| 2026-04-14 12:31 | 44.63655 | 12.67006 | 36991 ft | 459 kts | 162° |
| 2026-04-14 12:32 | 44.57615 | 12.69783 | 36991 ft | 459 kts | 162° |
| 2026-04-14 12:32 | 44.51602 | 12.72563 | 36991 ft | 459 kts | 161° |
| 2026-04-14 12:33 | 44.45578 | 12.75420 | 36991 ft | 459 kts | 161° |
| 2026-04-14 12:33 | 44.39566 | 12.78270 | 36991 ft | 459 kts | 161° |
| 2026-04-14 12:34 | 44.33528 | 12.81121 | 36991 ft | 459 kts | 161° |
| 2026-04-14 12:34 | 44.27507 | 12.83956 | 36991 ft | 459 kts | 161° |
| 2026-04-14 12:35 | 44.21497 | 12.86780 | 36991 ft | 459 kts | 161° |
| 2026-04-14 12:35 | 44.15449 | 12.89615 | 36991 ft | 459 kts | 161° |
| 2026-04-14 12:36 | 44.09443 | 12.92425 | 36991 ft | 459 kts | 161° |
| 2026-04-14 12:36 | 44.03439 | 12.95227 | 36991 ft | 459 kts | 161° |
| 2026-04-14 12:37 | 43.97385 | 12.98046 | 36991 ft | 459 kts | 161° |
| 2026-04-14 12:37 | 43.91365 | 13.00844 | 36991 ft | 459 kts | 161° |
| 2026-04-14 12:38 | 43.82341 | 13.05027 | 36991 ft | 459 kts | 161° |
| 2026-04-14 12:39 | 43.76310 | 13.07815 | 36991 ft | 459 kts | 161° |
| 2026-04-14 12:39 | 43.70264 | 13.10604 | 36991 ft | 459 kts | 161° |
| 2026-04-14 12:40 | 43.64254 | 13.13370 | 36991 ft | 459 kts | 161° |
| 2026-04-14 12:40 | 43.58198 | 13.16151 | 36991 ft | 459 kts | 161° |
| 2026-04-14 12:41 | 43.52189 | 13.18906 | 36991 ft | 459 kts | 161° |
| 2026-04-14 12:41 | 43.46152 | 13.21667 | 36991 ft | 459 kts | 161° |
| 2026-04-14 12:42 | 43.40102 | 13.24429 | 36991 ft | 459 kts | 161° |
| 2026-04-14 12:42 | 43.34090 | 13.27167 | 36991 ft | 459 kts | 161° |
| 2026-04-14 12:43 | 43.28036 | 13.29918 | 36991 ft | 459 kts | 161° |
| 2026-04-14 12:43 | 43.22027 | 13.32644 | 36991 ft | 459 kts | 161° |
| 2026-04-14 12:44 | 43.15998 | 13.35373 | 36991 ft | 459 kts | 161° |
| 2026-04-14 12:44 | 43.09949 | 13.38105 | 36991 ft | 459 kts | 161° |
| 2026-04-14 12:45 | 43.00890 | 13.42187 | 36991 ft | 459 kts | 161° |
| 2026-04-14 12:45 | 42.94861 | 13.44896 | 36991 ft | 459 kts | 161° |
| 2026-04-14 12:46 | 42.88815 | 13.47607 | 36991 ft | 459 kts | 161° |
| 2026-04-14 12:46 | 42.82800 | 13.50299 | 36991 ft | 459 kts | 161° |
| 2026-04-14 12:47 | 42.76754 | 13.52998 | 36991 ft | 459 kts | 161° |
| 2026-04-14 12:47 | 42.70705 | 13.55694 | 36991 ft | 459 kts | 161° |
| 2026-04-14 12:48 | 42.64678 | 13.58375 | 36991 ft | 459 kts | 161° |
| 2026-04-14 12:48 | 42.58633 | 13.61058 | 36991 ft | 459 kts | 161° |
| 2026-04-14 12:49 | 42.52566 | 13.63745 | 36974 ft | 457 kts | 161° |
| 2026-04-14 12:49 | 42.49598 | 13.65058 | 36723 ft | 453 kts | 162° |
| 2026-04-14 12:49 | 42.46630 | 13.66369 | 36150 ft | 451 kts | 162° |
| 2026-04-14 12:50 | 42.43664 | 13.67678 | 35501 ft | 451 kts | 162° |
| 2026-04-14 12:50 | 42.37624 | 13.70340 | 33507 ft | 465 kts | 162° |
| 2026-04-14 12:50 | 42.34582 | 13.71679 | 32576 ft | 468 kts | 162° |
| 2026-04-14 12:51 | 42.31484 | 13.73040 | 31696 ft | 470 kts | 162° |
| 2026-04-14 12:51 | 42.28411 | 13.74390 | 30816 ft | 471 kts | 162° |
| 2026-04-14 12:51 | 42.25280 | 13.75763 | 29882 ft | 473 kts | 162° |
| 2026-04-14 12:51 | 42.22194 | 13.77116 | 28927 ft | 475 kts | 162° |
| 2026-04-14 12:52 | 42.19062 | 13.78486 | 27927 ft | 477 kts | 162° |
| 2026-04-14 12:52 | 42.15900 | 13.79869 | 27001 ft | 476 kts | 162° |
| 2026-04-14 12:52 | 42.12814 | 13.81217 | 26388 ft | 469 kts | 162° |
| 2026-04-14 12:52 | 42.09721 | 13.82567 | 25681 ft | 465 kts | 162° |
| 2026-04-14 12:53 | 42.06658 | 13.83903 | 24741 ft | 466 kts | 162° |
| 2026-04-14 12:53 | 42.03617 | 13.85228 | 23961 ft | 463 kts | 162° |
| 2026-04-14 12:53 | 42.00565 | 13.86555 | 23275 ft | 458 kts | 162° |
| 2026-04-14 12:53 | 41.97563 | 13.87860 | 22609 ft | 453 kts | 162° |
| 2026-04-14 12:54 | 41.94614 | 13.89141 | 21945 ft | 449 kts | 162° |
| 2026-04-14 12:54 | 41.91657 | 13.90424 | 21273 ft | 444 kts | 162° |
| 2026-04-14 12:54 | 41.88749 | 13.91685 | 20611 ft | 440 kts | 162° |
| 2026-04-14 12:54 | 41.85867 | 13.92933 | 19952 ft | 436 kts | 162° |
| 2026-04-14 12:55 | 41.83020 | 13.94165 | 19324 ft | 431 kts | 162° |
| 2026-04-14 12:55 | 41.80219 | 13.95376 | 19030 ft | 418 kts | 162° |
| 2026-04-14 12:55 | 41.77491 | 13.96554 | 18800 ft | 404 kts | 162° |
| 2026-04-14 12:55 | 41.74865 | 13.97688 | 18583 ft | 392 kts | 162° |
| 2026-04-14 12:56 | 41.72332 | 13.98780 | 18257 ft | 383 kts | 162° |
| 2026-04-14 12:56 | 41.69799 | 13.99871 | 17901 ft | 380 kts | 162° |
| 2026-04-14 12:56 | 41.67291 | 14.00950 | 17644 ft | 380 kts | 162° |
| 2026-04-14 12:56 | 41.64819 | 14.02045 | 17373 ft | 379 kts | 159° |
| 2026-04-14 12:57 | 41.62448 | 14.03624 | 17013 ft | 377 kts | 147° |
| 2026-04-14 12:57 | 41.60404 | 14.05738 | 16582 ft | 374 kts | 136° |
| 2026-04-14 12:57 | 41.58528 | 14.08116 | 16082 ft | 373 kts | 139° |
| 2026-04-14 12:57 | 41.56552 | 14.10325 | 15564 ft | 372 kts | 141° |
| 2026-04-14 12:58 | 41.54555 | 14.12492 | 15064 ft | 370 kts | 141° |
| 2026-04-14 12:58 | 41.52575 | 14.14654 | 14574 ft | 368 kts | 140° |
| 2026-04-14 12:58 | 41.50625 | 14.16804 | 14091 ft | 366 kts | 140° |
| 2026-04-14 12:58 | 41.48682 | 14.18962 | 13609 ft | 363 kts | 140° |
| 2026-04-14 12:59 | 41.46759 | 14.21107 | 13129 ft | 361 kts | 140° |
| 2026-04-14 12:59 | 41.44838 | 14.23255 | 12648 ft | 359 kts | 140° |
| 2026-04-14 12:59 | 41.42938 | 14.25380 | 12173 ft | 356 kts | 140° |
| 2026-04-14 12:59 | 41.41051 | 14.27492 | 11700 ft | 354 kts | 140° |
| 2026-04-14 13:00 | 41.39198 | 14.29563 | 11233 ft | 351 kts | 140° |
| 2026-04-14 13:00 | 41.37326 | 14.31657 | 10771 ft | 349 kts | 140° |
| 2026-04-14 13:00 | 41.35513 | 14.33682 | 10548 ft | 338 kts | 140° |
| 2026-04-14 13:00 | 41.33734 | 14.35669 | 10406 ft | 325 kts | 140° |
| 2026-04-14 13:01 | 41.32039 | 14.37562 | 10263 ft | 313 kts | 140° |
| 2026-04-14 13:01 | 41.30424 | 14.39363 | 10130 ft | 301 kts | 140° |
| 2026-04-14 13:01 | 41.28834 | 14.41135 | 10003 ft | 290 kts | 140° |
| 2026-04-14 13:01 | 41.27301 | 14.42843 | 9652 ft | 288 kts | 140° |
| 2026-04-14 13:02 | 41.25774 | 14.44543 | 9294 ft | 287 kts | 140° |
| 2026-04-14 13:02 | 41.24251 | 14.46236 | 8947 ft | 285 kts | 140° |
| 2026-04-14 13:02 | 41.22745 | 14.47910 | 8609 ft | 283 kts | 140° |
| 2026-04-14 13:02 | 41.21247 | 14.49575 | 8274 ft | 281 kts | 140° |
| 2026-04-14 13:03 | 41.19768 | 14.51216 | 7945 ft | 278 kts | 140° |
| 2026-04-14 13:03 | 41.18276 | 14.52872 | 7611 ft | 276 kts | 140° |
| 2026-04-14 13:03 | 41.16824 | 14.54483 | 7287 ft | 274 kts | 140° |
| 2026-04-14 13:03 | 41.15361 | 14.56105 | 6960 ft | 272 kts | 140° |
| 2026-04-14 13:04 | 41.13922 | 14.57699 | 6638 ft | 270 kts | 140° |
| 2026-04-14 13:04 | 41.12473 | 14.59301 | 6481 ft | 271 kts | 140° |
| 2026-04-14 13:04 | 41.11027 | 14.60901 | 6482 ft | 273 kts | 140° |
| 2026-04-14 13:04 | 41.09579 | 14.62501 | 6478 ft | 268 kts | 140° |
| 2026-04-14 13:05 | 41.08001 | 14.63712 | 6462 ft | 263 kts | 165° |
| 2026-04-14 13:05 | 41.06210 | 14.63817 | 6457 ft | 254 kts | 193° |
| 2026-04-14 13:05 | 41.04631 | 14.62842 | 6457 ft | 252 kts | 219° |
| 2026-04-14 13:05 | 41.03517 | 14.61088 | 6433 ft | 246 kts | 237° |
| 2026-04-14 13:06 | 41.02653 | 14.59188 | 6253 ft | 240 kts | 240° |
| 2026-04-14 13:06 | 41.01859 | 14.57250 | 5940 ft | 240 kts | 242° |
| 2026-04-14 13:06 | 41.01032 | 14.55337 | 5580 ft | 241 kts | 238° |
| 2026-04-14 13:06 | 41.00138 | 14.53454 | 5207 ft | 243 kts | 237° |
| 2026-04-14 13:07 | 40.99227 | 14.51572 | 4793 ft | 243 kts | 237° |
| 2026-04-14 13:07 | 40.98362 | 14.49692 | 4340 ft | 237 kts | 238° |
| 2026-04-14 13:07 | 40.97522 | 14.47849 | 3881 ft | 234 kts | 238° |
| 2026-04-14 13:07 | 40.96681 | 14.46027 | 3421 ft | 232 kts | 238° |
| 2026-04-14 13:08 | 40.95786 | 14.44286 | 2960 ft | 229 kts | 233° |
| 2026-04-14 13:08 | 40.94881 | 14.42590 | 2667 ft | 219 kts | 237° |
| 2026-04-14 13:08 | 40.94112 | 14.40897 | 2375 ft | 211 kts | 239° |
| 2026-04-14 13:08 | 40.93369 | 14.39241 | 2028 ft | 207 kts | 239° |
| 2026-04-14 13:09 | 40.92648 | 14.37627 | 1683 ft | 203 kts | 237° |
| 2026-04-14 13:09 | 40.91914 | 14.36075 | 1438 ft | 192 kts | 238° |
| 2026-04-14 13:09 | 40.91239 | 14.34634 | 1194 ft | 181 kts | 238° |
| 2026-04-14 13:09 | 40.90592 | 14.33243 | 872 ft | 173 kts | 237° |
| 2026-04-14 13:10 | 40.89961 | 14.31950 | 606 ft | 160 kts | 237° |
| 2026-04-14 13:10 | 40.89395 | 14.30761 | 379 ft | 147 kts | 237° |
| 2026-04-14 13:10 | 40.88888 | 14.29684 | 251 ft | 128 kts | 238° |
| 2026-04-14 13:10 | 40.88559 | 14.28981 | 263 ft | 45 kts | 238° |
| 2026-04-14 13:11 | 40.88473 | 14.28800 | 269 ft | 18 kts | 236° |
| 2026-04-14 13:11 | 40.88374 | 14.28796 | 273 ft | 14 kts | 152° |
| 2026-04-14 13:11 | 40.88290 | 14.28861 | 275 ft | 13 kts | 146° |
| 2026-04-14 13:11 | 40.88209 | 14.28886 | 277 ft | 11 kts | 216° |
| 2026-04-14 13:12 | 40.88166 | 14.28817 | 281 ft | 9 kts | 235° |
| 2026-04-14 13:12 | 40.88127 | 14.28744 | 284 ft | 10 kts | 233° |
| 2026-04-14 13:12 | 40.88081 | 14.28665 | 288 ft | 11 kts | 232° |
| 2026-04-14 13:12 | 40.88029 | 14.28576 | 291 ft | 13 kts | 231° |
| 2026-04-14 13:13 | 40.87961 | 14.28482 | 296 ft | 13 kts | 219° |
| 2026-04-14 13:13 | 40.87938 | 14.28379 | 296 ft | 12 kts | 283° |
| 2026-04-14 13:13 | 40.87930 | 14.28293 | 295 ft | 10 kts | 205° |
| 2026-04-14 13:13 | 40.87882 | 14.28285 | 295 ft | 3 kts | 189° |
| 2026-04-14 13:14 | 40.87880 | 14.28284 | 295 ft | 0 kts | 189° |